Mount Carmel, Ohio
Current Conditions -  °F | °C
As of 11:53 AM on Tuesday 21 Oct 2014 (Local Time) from KLUK Reporting Station
Overcast Overcast  
Wind Chill: 55°   Ceiling: 6000
Heat Index: 55°   Visibility: 10mi
Dew Point: 41°   Wind: 14mph
Humidity: 59%   Direction: 340°NNW
Pressure: 30.05"   Gusts: 18mph
Location:  39.1204°N, 84.3269°W
Report Text: KLUK 211553Z 34012G16KT 10SM SCT046 OVC060 13/05 A3005 RMK AO2 SLP175 T01280050
Loading
Personal Weather Stations






























Interactive Weather Map
Tropical Storm Tracking
New forecast layout! Learn more

10-Day Weather Forecast

Advertisements
Track Severe Weather on mobile